createdAt,value
2016-10-02T00:00:37.919Z,16.2
2016-10-02T00:01:37.932Z,16.16
2016-10-02T00:02:37.937Z,16.21
2016-10-02T00:03:37.950Z,16.2
2016-10-02T00:04:37.955Z,16.23
2016-10-02T00:05:37.958Z,16.2
2016-10-02T00:06:37.967Z,16.17
2016-10-02T00:07:38.089Z,16.17
2016-10-02T00:08:38.097Z,16.2
2016-10-02T00:09:38.091Z,16.16
2016-10-02T00:10:38.059Z,16.13
2016-10-02T00:11:38.073Z,16.15
2016-10-02T00:12:38.107Z,16.1
2016-10-02T00:13:38.110Z,16.13
2016-10-02T00:14:38.145Z,16.15
2016-10-02T00:15:38.162Z,16.15
2016-10-02T00:16:38.196Z,16.15
2016-10-02T00:17:38.201Z,16.16
2016-10-02T00:18:38.224Z,16.08
2016-10-02T00:19:38.253Z,16.15
2016-10-02T00:20:44.559Z,16.05
2016-10-02T00:21:38.306Z,16.09
2016-10-02T00:22:38.324Z,16.02
2016-10-02T00:23:38.353Z,16.1
2016-10-02T00:24:38.369Z,16.02
2016-10-02T00:25:38.388Z,16.04
2016-10-02T00:26:38.416Z,16.01
2016-10-02T00:27:38.432Z,16.04
2016-10-02T00:28:38.455Z,15.95
2016-10-02T00:29:38.471Z,16.02
2016-10-02T00:30:38.493Z,16
2016-10-02T00:31:38.516Z,15.91
2016-10-02T00:32:38.538Z,15.92
2016-10-02T00:33:38.558Z,16
2016-10-02T00:34:38.588Z,16
2016-10-02T00:35:38.597Z,16.01
2016-10-02T00:36:38.617Z,16.04
2016-10-02T00:37:38.640Z,15.97
2016-10-02T00:38:38.666Z,15.95
2016-10-02T00:39:38.696Z,15.92
2016-10-02T00:40:38.708Z,15.9
2016-10-02T00:41:38.733Z,15.86
2016-10-02T00:42:38.750Z,15.95
2016-10-02T00:43:38.775Z,15.9
2016-10-02T00:44:38.794Z,15.91
2016-10-02T00:45:38.824Z,15.9
2016-10-02T00:46:38.832Z,15.91
2016-10-02T00:47:38.866Z,15.92
2016-10-02T00:48:38.878Z,15.92
2016-10-02T00:49:38.897Z,15.91
2016-10-02T00:50:38.930Z,15.94
2016-10-02T00:51:38.925Z,15.88
2016-10-02T00:52:38.963Z,15.91
2016-10-02T00:53:38.967Z,15.82
2016-10-02T00:54:39.001Z,15.83
2016-10-02T00:55:39.021Z,15.77
2016-10-02T00:56:39.038Z,15.8
2016-10-02T00:57:39.073Z,15.84
2016-10-02T00:58:39.397Z,15.8
2016-10-02T00:59:39.102Z,15.76
2016-10-02T01:00:39.115Z,15.84
2016-10-02T01:01:39.142Z,15.79
2016-10-02T01:02:39.163Z,15.8
2016-10-02T01:03:39.179Z,15.76
2016-10-02T01:04:39.220Z,15.79
2016-10-02T01:05:39.240Z,15.83
2016-10-02T01:06:39.256Z,15.76
2016-10-02T01:07:39.262Z,15.75
2016-10-02T01:08:39.299Z,15.68
2016-10-02T01:09:39.316Z,15.8
2016-10-02T01:10:39.365Z,15.68
2016-10-02T01:11:39.350Z,15.62
2016-10-02T01:12:39.371Z,15.75
2016-10-02T01:13:39.394Z,15.62
2016-10-02T01:14:39.414Z,15.72
2016-10-02T01:15:39.433Z,15.67
2016-10-02T01:16:39.456Z,15.73
2016-10-02T01:17:39.471Z,15.72
2016-10-02T01:18:39.496Z,15.67
2016-10-02T01:19:39.510Z,15.64
2016-10-02T01:20:39.534Z,15.7
2016-10-02T01:21:39.568Z,15.65
2016-10-02T01:22:39.583Z,15.64
2016-10-02T01:23:39.600Z,15.59
2016-10-02T01:24:39.737Z,15.61
2016-10-02T01:25:39.886Z,15.61
2016-10-02T01:26:39.884Z,15.67
2016-10-02T01:27:39.893Z,15.61
2016-10-02T01:28:39.906Z,15.61
2016-10-02T01:29:39.913Z,15.64
2016-10-02T01:30:39.912Z,15.67
2016-10-02T01:31:39.923Z,15.64
2016-10-02T01:32:39.931Z,15.64
2016-10-02T01:33:39.941Z,15.57
2016-10-02T01:34:39.951Z,15.61
2016-10-02T01:35:39.948Z,15.54
2016-10-02T01:36:39.959Z,15.54
2016-10-02T01:37:40.102Z,15.54
2016-10-02T01:38:40.017Z,15.55
2016-10-02T01:39:40.014Z,15.54
2016-10-02T01:40:40.064Z,15.55
2016-10-02T01:41:40.076Z,15.49
2016-10-02T01:42:40.084Z,15.52
2016-10-02T01:43:40.091Z,15.52
2016-10-02T01:44:40.119Z,15.54
2016-10-02T01:45:40.127Z,15.47
2016-10-02T01:46:40.137Z,15.46
2016-10-02T01:47:40.148Z,15.51
2016-10-02T01:48:40.147Z,15.49
2016-10-02T01:49:40.148Z,15.59
2016-10-02T01:50:40.156Z,15.47
2016-10-02T01:51:40.180Z,15.47
2016-10-02T01:52:40.203Z,15.46
2016-10-02T01:53:40.224Z,15.52
2016-10-02T01:54:40.240Z,15.47
2016-10-02T01:55:40.263Z,15.47
2016-10-02T01:56:40.288Z,15.54
2016-10-02T01:57:40.302Z,15.52
2016-10-02T01:58:40.638Z,15.44
2016-10-02T01:59:40.349Z,15.55
2016-10-02T02:00:40.373Z,15.46
2016-10-02T02:01:40.389Z,15.44
2016-10-02T02:02:40.403Z,15.46
2016-10-02T02:03:40.503Z,15.51
2016-10-02T02:04:40.467Z,15.42
2016-10-02T02:05:40.475Z,15.49
2016-10-02T02:06:40.492Z,15.43
2016-10-02T02:07:40.512Z,15.46
2016-10-02T02:08:40.527Z,15.42
2016-10-02T02:09:40.560Z,15.44
2016-10-02T02:10:40.582Z,15.44
2016-10-02T02:11:40.593Z,15.51
2016-10-02T02:12:40.626Z,15.44
2016-10-02T02:13:40.750Z,15.46
2016-10-02T02:14:40.683Z,15.4
2016-10-02T02:15:40.674Z,15.43
2016-10-02T02:16:41.035Z,15.42
2016-10-02T02:17:40.722Z,15.43
2016-10-02T02:18:40.742Z,15.39
2016-10-02T02:19:40.778Z,15.35
2016-10-02T02:20:40.779Z,15.4
2016-10-02T02:21:40.803Z,15.37
2016-10-02T02:22:40.813Z,15.37
2016-10-02T02:23:40.844Z,15.44
2016-10-02T02:24:40.856Z,15.37
2016-10-02T02:25:40.889Z,15.33
2016-10-02T02:26:40.912Z,15.39
2016-10-02T02:27:40.918Z,15.39
2016-10-02T02:28:40.963Z,15.37
2016-10-02T02:29:40.968Z,15.35
2016-10-02T02:30:41.026Z,15.37
2016-10-02T02:31:41.001Z,15.39
2016-10-02T02:32:41.024Z,15.31
2016-10-02T02:33:41.049Z,15.33
2016-10-02T02:34:41.079Z,15.29
2016-10-02T02:35:41.091Z,15.28
2016-10-02T02:36:41.108Z,15.28
2016-10-02T02:37:41.124Z,15.31
2016-10-02T02:38:41.143Z,15.33
2016-10-02T02:39:41.173Z,15.27
2016-10-02T02:40:41.205Z,15.28
2016-10-02T02:41:41.209Z,15.27
2016-10-02T02:42:41.236Z,15.19
2016-10-02T02:43:41.254Z,15.18
2016-10-02T02:44:41.328Z,15.17
2016-10-02T02:45:41.288Z,15.28
2016-10-02T02:46:41.321Z,15.14
2016-10-02T02:47:41.334Z,15.28
2016-10-02T02:48:41.358Z,15.21
2016-10-02T02:49:41.376Z,15.18
2016-10-02T02:50:41.401Z,15.22
2016-10-02T02:51:41.413Z,15.27
2016-10-02T02:52:41.438Z,15.14
2016-10-02T02:53:41.497Z,15.19
2016-10-02T02:54:41.471Z,15.24
2016-10-02T02:55:41.503Z,15.19
2016-10-02T02:56:41.534Z,15.14
2016-10-02T02:57:41.543Z,15.15
2016-10-02T02:58:41.557Z,15.22
2016-10-02T02:59:41.898Z,15.1
2016-10-02T03:00:41.595Z,15.1
2016-10-02T03:01:41.794Z,15.19
2016-10-02T03:02:41.759Z,15.09
2016-10-02T03:03:41.770Z,15.11
2016-10-02T03:04:41.921Z,15.15
2016-10-02T03:05:41.786Z,15.1
2016-10-02T03:06:41.801Z,15.17
2016-10-02T03:07:41.923Z,15.18
2016-10-02T03:08:42.068Z,15.15
2016-10-02T03:09:41.929Z,15.02
2016-10-02T03:10:41.938Z,15.07
2016-10-02T03:11:41.947Z,15.15
2016-10-02T03:12:41.965Z,15.04
2016-10-02T03:13:42.097Z,15.03
2016-10-02T03:14:42.100Z,15.03
2016-10-02T03:15:42.114Z,15.07
2016-10-02T03:16:42.113Z,14.97
2016-10-02T03:17:42.130Z,15.02
2016-10-02T03:18:42.211Z,15.04
2016-10-02T03:19:42.135Z,15.03
2016-10-02T03:20:42.082Z,15.02
2016-10-02T03:21:42.102Z,15.06
2016-10-02T03:22:42.136Z,14.94
2016-10-02T03:23:42.171Z,15.03
2016-10-02T03:24:42.147Z,15
2016-10-02T03:25:42.149Z,14.99
2016-10-02T03:26:42.160Z,14.96
2016-10-02T03:27:42.169Z,14.97
2016-10-02T03:28:42.591Z,14.96
2016-10-02T03:29:42.188Z,15.02
2016-10-02T03:30:42.240Z,14.96
2016-10-02T03:31:42.240Z,15.02
2016-10-02T03:32:42.253Z,15
2016-10-02T03:33:42.270Z,14.94
2016-10-02T03:34:42.293Z,14.94
2016-10-02T03:35:42.314Z,14.97
2016-10-02T03:36:42.330Z,14.92
2016-10-02T03:37:42.360Z,14.91
2016-10-02T03:38:42.378Z,14.92
2016-10-02T03:39:42.405Z,14.89
2016-10-02T03:40:42.411Z,14.96
2016-10-02T03:41:42.435Z,14.91
2016-10-02T03:42:42.454Z,14.91
2016-10-02T03:43:42.515Z,14.88
2016-10-02T03:44:42.508Z,14.94
2016-10-02T03:45:42.541Z,14.86
2016-10-02T03:46:42.853Z,14.86
2016-10-02T03:47:42.559Z,14.81
2016-10-02T03:48:42.575Z,14.81
2016-10-02T03:49:42.601Z,14.81
2016-10-02T03:50:42.615Z,14.86
2016-10-02T03:51:42.634Z,14.77
2016-10-02T03:52:42.663Z,14.78
2016-10-02T03:53:42.677Z,14.77
2016-10-02T03:54:42.695Z,14.79
2016-10-02T03:55:42.711Z,14.79
2016-10-02T03:56:42.745Z,14.78
2016-10-02T03:57:42.757Z,14.82
2016-10-02T03:58:42.778Z,14.81
2016-10-02T03:59:42.800Z,14.79
2016-10-02T04:00:42.824Z,14.77
2016-10-02T04:01:42.840Z,14.77
2016-10-02T04:02:42.853Z,14.77
2016-10-02T04:03:42.883Z,14.73
2016-10-02T04:04:42.894Z,14.7
2016-10-02T04:05:42.924Z,14.73
2016-10-02T04:06:42.939Z,14.77
2016-10-02T04:07:42.953Z,14.73
2016-10-02T04:08:42.988Z,14.78
2016-10-02T04:09:42.995Z,14.7
2016-10-02T04:10:43.025Z,14.73
2016-10-02T04:11:43.053Z,14.78
2016-10-02T04:12:43.064Z,14.77
2016-10-02T04:13:43.082Z,14.73
2016-10-02T04:14:43.106Z,14.73
2016-10-02T04:15:43.116Z,14.72
2016-10-02T04:16:43.144Z,14.66
2016-10-02T04:17:43.175Z,14.62
2016-10-02T04:18:43.183Z,14.69
2016-10-02T04:19:43.192Z,14.62
2016-10-02T04:20:43.220Z,14.58
2016-10-02T04:21:43.238Z,14.63
2016-10-02T04:22:43.256Z,14.66
2016-10-02T04:23:43.280Z,14.51
2016-10-02T04:24:43.309Z,14.51
2016-10-02T04:25:43.320Z,14.59
2016-10-02T04:26:43.345Z,14.53
2016-10-02T04:27:43.360Z,14.66
2016-10-02T04:28:43.374Z,14.5
2016-10-02T04:29:43.401Z,14.5
2016-10-02T04:30:43.415Z,14.53
2016-10-02T04:31:43.436Z,14.5
2016-10-02T04:32:43.453Z,14.55
2016-10-02T04:33:43.478Z,14.53
2016-10-02T04:34:43.515Z,14.48
2016-10-02T04:35:43.524Z,14.5
2016-10-02T04:36:43.543Z,14.55
2016-10-02T04:37:43.565Z,14.47
2016-10-02T04:38:43.581Z,14.51
2016-10-02T04:39:43.602Z,14.41
2016-10-02T04:40:43.618Z,14.4
2016-10-02T04:41:43.640Z,14.43
2016-10-02T04:42:43.776Z,14.44
2016-10-02T04:43:43.680Z,14.4
2016-10-02T04:44:43.711Z,14.47
2016-10-02T04:45:43.718Z,14.43
2016-10-02T04:46:43.738Z,14.44
2016-10-02T04:47:43.768Z,14.43
2016-10-02T04:48:43.778Z,14.35
2016-10-02T04:49:43.792Z,14.37
2016-10-02T04:50:43.815Z,14.36
2016-10-02T04:51:43.834Z,14.36
2016-10-02T04:52:43.861Z,14.37
2016-10-02T04:53:43.879Z,14.35
2016-10-02T04:54:43.901Z,14.35
2016-10-02T04:55:43.933Z,14.4
2016-10-02T04:56:43.933Z,14.4
2016-10-02T04:57:43.965Z,14.28
2016-10-02T04:58:43.979Z,14.28
2016-10-02T04:59:44.005Z,14.26
2016-10-02T05:00:44.029Z,14.23
2016-10-02T05:01:44.030Z,14.32
2016-10-02T05:02:44.060Z,14.25
2016-10-02T05:03:44.071Z,14.25
2016-10-02T05:04:44.109Z,14.28
2016-10-02T05:05:44.117Z,14.25
2016-10-02T05:06:44.143Z,14.18
2016-10-02T05:07:44.165Z,14.22
2016-10-02T05:08:44.169Z,14.28
2016-10-02T05:09:44.193Z,14.25
2016-10-02T05:10:44.220Z,14.17
2016-10-02T05:11:44.240Z,14.26
2016-10-02T05:12:44.260Z,14.14
2016-10-02T05:13:44.595Z,14.17
2016-10-02T05:14:44.296Z,14.2
2016-10-02T05:15:44.310Z,14.18
2016-10-02T05:16:44.342Z,14.22
2016-10-02T05:17:44.364Z,14.22
2016-10-02T05:18:44.371Z,14.2
2016-10-02T05:19:44.399Z,14.22
2016-10-02T05:20:44.418Z,14.25
2016-10-02T05:21:44.439Z,14.18
2016-10-02T05:22:44.452Z,14.15
2016-10-02T05:23:44.472Z,14.17
2016-10-02T05:24:44.499Z,14.17
2016-10-02T05:25:44.507Z,14.26
2016-10-02T05:26:44.530Z,14.22
2016-10-02T05:27:44.552Z,14.22
2016-10-02T05:28:44.568Z,14.18
2016-10-02T05:29:44.596Z,14.11
2016-10-02T05:30:44.608Z,14.12
2016-10-02T05:31:44.633Z,14.2
2016-10-02T05:32:44.651Z,14.17
2016-10-02T05:33:44.681Z,14.17
2016-10-02T05:34:44.691Z,14.08
2016-10-02T05:35:44.699Z,14.14
2016-10-02T05:36:44.729Z,14.15
2016-10-02T05:37:44.745Z,14.05
2016-10-02T05:38:44.765Z,14.1
2016-10-02T05:39:44.802Z,14.1
2016-10-02T05:40:44.811Z,14.05
2016-10-02T05:41:44.826Z,14.07
2016-10-02T05:42:44.841Z,14.11
2016-10-02T05:43:44.861Z,14.07
2016-10-02T05:44:44.882Z,14.04
2016-10-02T05:45:44.909Z,14.11
2016-10-02T05:46:44.920Z,14.04
2016-10-02T05:47:44.943Z,14.04
2016-10-02T05:48:44.968Z,14.05
2016-10-02T05:49:44.975Z,14.07
2016-10-02T05:50:45.006Z,14.05
2016-10-02T05:51:45.027Z,14.05
2016-10-02T05:52:45.038Z,14.05
2016-10-02T05:53:45.069Z,14.07
2016-10-02T05:54:45.087Z,14.08
2016-10-02T05:55:45.098Z,14.17
2016-10-02T05:56:45.117Z,14.17
2016-10-02T05:57:45.138Z,14.15
2016-10-02T05:58:45.161Z,14.12
2016-10-02T05:59:45.172Z,14.17
2016-10-02T06:00:45.199Z,14.03
2016-10-02T06:01:45.227Z,14.15
2016-10-02T06:02:45.237Z,14.14
2016-10-02T06:03:45.257Z,14.26
2016-10-02T06:04:45.269Z,14.14
2016-10-02T06:05:45.290Z,14.1
2016-10-02T06:06:45.313Z,14.22
2016-10-02T06:07:45.344Z,14.18
2016-10-02T06:08:45.355Z,14.22
2016-10-02T06:09:45.371Z,14.15
2016-10-02T06:10:45.392Z,14.23
2016-10-02T06:11:45.410Z,14.26
2016-10-02T06:12:45.435Z,14.3
2016-10-02T06:13:45.453Z,14.25
2016-10-02T06:14:45.465Z,14.25
2016-10-02T06:15:45.497Z,14.25
2016-10-02T06:16:45.509Z,14.3
2016-10-02T06:17:45.545Z,14.35
2016-10-02T06:18:45.546Z,14.3
2016-10-02T06:19:45.566Z,14.35
2016-10-02T06:20:45.583Z,14.44
2016-10-02T06:21:45.612Z,14.41
2016-10-02T06:22:45.629Z,14.5
2016-10-02T06:23:45.646Z,14.48
2016-10-02T06:24:45.672Z,14.53
2016-10-02T06:25:45.688Z,14.51
2016-10-02T06:26:45.710Z,14.55
2016-10-02T06:27:45.725Z,14.5
2016-10-02T06:28:45.742Z,14.69
2016-10-02T06:29:45.762Z,14.65
2016-10-02T06:30:45.780Z,14.73
2016-10-02T06:31:45.801Z,14.77
2016-10-02T06:32:45.840Z,14.73
2016-10-02T06:33:45.846Z,14.82
2016-10-02T06:34:45.876Z,14.73
2016-10-02T06:35:45.886Z,14.85
2016-10-02T06:36:45.900Z,14.89
2016-10-02T06:37:45.923Z,15
2016-10-02T06:38:45.939Z,14.97
2016-10-02T06:39:45.960Z,15.03
2016-10-02T06:40:45.978Z,15.03
2016-10-02T06:41:46.008Z,15.04
2016-10-02T06:42:46.016Z,15.1
2016-10-02T06:43:46.055Z,15.17
2016-10-02T06:44:46.066Z,15.22
2016-10-02T06:45:46.077Z,15.22
2016-10-02T06:46:46.103Z,15.22
2016-10-02T06:47:46.125Z,15.19
2016-10-02T06:48:46.144Z,15.18
2016-10-02T06:49:46.164Z,15.29
2016-10-02T06:50:46.183Z,15.24
2016-10-02T06:51:46.200Z,15.31
2016-10-02T06:52:46.217Z,15.33
2016-10-02T06:53:46.236Z,15.4
2016-10-02T06:54:46.262Z,15.44
2016-10-02T06:55:46.276Z,15.43
2016-10-02T06:56:46.305Z,15.44
2016-10-02T06:57:46.311Z,15.49
2016-10-02T06:58:46.343Z,15.44
2016-10-02T06:59:46.358Z,15.47
2016-10-02T07:00:46.376Z,15.49
2016-10-02T07:01:46.388Z,15.52
2016-10-02T07:02:46.424Z,15.55
2016-10-02T07:03:46.437Z,15.59
2016-10-02T07:04:46.462Z,15.61
2016-10-02T07:05:46.472Z,15.67
2016-10-02T07:06:46.510Z,15.68
2016-10-02T07:07:46.515Z,15.65
2016-10-02T07:08:46.533Z,15.65
2016-10-02T07:09:46.559Z,15.72
2016-10-02T07:10:46.575Z,15.64
2016-10-02T07:11:46.593Z,15.73
2016-10-02T07:12:46.615Z,15.73
2016-10-02T07:13:46.633Z,15.75
2016-10-02T07:14:46.666Z,15.75
2016-10-02T07:15:46.678Z,15.84
2016-10-02T07:16:46.719Z,15.82
2016-10-02T07:17:46.722Z,15.8
2016-10-02T07:18:46.745Z,15.88
2016-10-02T07:19:46.757Z,15.92
2016-10-02T07:20:46.770Z,15.92
2016-10-02T07:21:46.798Z,15.95
2016-10-02T07:22:46.818Z,16
2016-10-02T07:23:46.836Z,16
2016-10-02T07:24:46.859Z,16.02
2016-10-02T07:25:46.883Z,15.92
2016-10-02T07:26:46.904Z,15.98
2016-10-02T07:27:46.930Z,16.02
2016-10-02T07:28:46.936Z,16.02
2016-10-02T07:29:46.952Z,16.05
2016-10-02T07:30:46.983Z,16.13
2016-10-02T07:31:47.007Z,16.04
2016-10-02T07:32:47.023Z,16.12
2016-10-02T07:33:47.043Z,16.15
2016-10-02T07:34:47.060Z,16.24
2016-10-02T07:35:47.085Z,16.2
2016-10-02T07:36:47.101Z,16.28
2016-10-02T07:37:47.440Z,16.2
2016-10-02T07:38:47.244Z,16.33
2016-10-02T07:39:47.285Z,16.36
2016-10-02T07:40:47.190Z,16.42
2016-10-02T07:41:47.210Z,16.41
2016-10-02T07:42:47.229Z,16.38
2016-10-02T07:43:47.249Z,16.47
2016-10-02T07:44:47.276Z,16.51
2016-10-02T07:45:47.289Z,16.5
2016-10-02T07:46:47.308Z,16.5
2016-10-02T07:47:47.328Z,16.56
2016-10-02T07:48:47.349Z,16.57
2016-10-02T07:49:47.366Z,16.65
2016-10-02T07:50:47.389Z,16.68
2016-10-02T07:51:47.400Z,16.69
2016-10-02T07:52:47.425Z,16.74
2016-10-02T07:53:47.472Z,16.74
2016-10-02T07:54:47.587Z,16.75
2016-10-02T07:55:47.589Z,16.79
2016-10-02T07:56:47.506Z,16.9
2016-10-02T07:57:47.540Z,16.79
2016-10-02T07:58:47.551Z,16.86
2016-10-02T07:59:47.658Z,16.9
2016-10-02T08:00:47.627Z,16.9
2016-10-02T08:01:47.613Z,16.86
2016-10-02T08:02:47.638Z,16.93
2016-10-02T08:03:47.990Z,17.05
2016-10-02T08:04:47.679Z,17.05
2016-10-02T08:05:47.693Z,16.99
2016-10-02T08:06:48.038Z,16.91
2016-10-02T08:07:47.743Z,16.96
2016-10-02T08:08:47.761Z,17.08
2016-10-02T08:09:47.780Z,17.04
2016-10-02T08:10:47.803Z,17.04
2016-10-02T08:11:47.834Z,17.05
2016-10-02T08:12:47.867Z,17.09
2016-10-02T08:13:47.922Z,17.14
2016-10-02T08:14:47.879Z,17.12
2016-10-02T08:15:48.232Z,17.14
2016-10-02T08:16:48.014Z,17.19
2016-10-02T08:17:47.949Z,17.2
2016-10-02T08:18:47.967Z,17.23
2016-10-02T08:19:47.991Z,17.2
2016-10-02T08:20:48.003Z,17.26
2016-10-02T08:21:48.036Z,17.26
2016-10-02T08:22:48.048Z,17.26
2016-10-02T08:23:48.070Z,17.36
2016-10-02T08:24:48.096Z,17.31
2016-10-02T08:25:48.112Z,17.34
2016-10-02T08:26:48.126Z,17.34
2016-10-02T08:27:48.154Z,17.34
2016-10-02T08:28:48.179Z,17.34
2016-10-02T08:29:48.197Z,17.39
2016-10-02T08:30:48.440Z,17.36
2016-10-02T08:31:48.240Z,17.39
2016-10-02T08:32:48.457Z,17.44
2016-10-02T08:33:48.466Z,17.49
2016-10-02T08:34:48.315Z,17.46
2016-10-02T08:35:48.323Z,17.49
2016-10-02T08:36:48.355Z,17.56
2016-10-02T08:37:48.366Z,17.59
2016-10-02T08:38:48.383Z,17.68
2016-10-02T08:39:48.414Z,17.71
2016-10-02T08:40:48.435Z,17.74
2016-10-02T08:41:48.449Z,17.74
2016-10-02T08:42:48.482Z,17.78
2016-10-02T08:43:48.495Z,17.79
2016-10-02T08:44:48.507Z,17.86
2016-10-02T08:45:48.546Z,17.92
2016-10-02T08:46:48.561Z,17.85
2016-10-02T08:47:48.576Z,17.89
2016-10-02T08:48:48.600Z,17.89
2016-10-02T08:49:48.615Z,17.87
2016-10-02T08:50:48.645Z,17.98
2016-10-02T08:51:48.790Z,18.07
2016-10-02T08:52:48.692Z,18.07
2016-10-02T08:53:48.815Z,18
2016-10-02T08:54:48.725Z,18.04
2016-10-02T08:55:48.748Z,18.03
2016-10-02T08:56:48.766Z,18.03
2016-10-02T08:57:48.798Z,18.07
2016-10-02T08:58:48.805Z,18.11
2016-10-02T08:59:48.829Z,18.01
2016-10-02T09:00:48.851Z,18.16
2016-10-02T09:01:48.876Z,18.22
2016-10-02T09:02:48.904Z,18.11
2016-10-02T09:03:48.918Z,18.2
2016-10-02T09:04:48.944Z,18.31
2016-10-02T09:05:48.973Z,18.31
2016-10-02T09:06:48.995Z,18.34
2016-10-02T09:07:49.015Z,18.31
2016-10-02T09:08:49.024Z,18.35
2016-10-02T09:09:49.044Z,18.38
2016-10-02T09:10:49.071Z,18.43
2016-10-02T09:11:49.097Z,18.43
2016-10-02T09:12:49.114Z,18.47
2016-10-02T09:13:49.186Z,18.49
2016-10-02T09:14:49.156Z,18.52
2016-10-02T09:15:49.179Z,18.56
2016-10-02T09:16:49.191Z,18.62
2016-10-02T09:17:49.232Z,18.6
2016-10-02T09:18:49.241Z,18.58
2016-10-02T09:19:49.275Z,18.62
2016-10-02T09:20:49.287Z,18.6
2016-10-02T09:21:49.301Z,18.73
2016-10-02T09:22:49.322Z,18.71
2016-10-02T09:23:49.362Z,18.7
2016-10-02T09:24:49.478Z,18.75
2016-10-02T09:25:49.390Z,18.89
2016-10-02T09:26:49.408Z,18.83
2016-10-02T09:27:49.447Z,18.88
2016-10-02T09:28:49.474Z,18.93
2016-10-02T09:29:49.481Z,18.9
2016-10-02T09:30:49.498Z,18.95
2016-10-02T09:31:49.785Z,19.02
2016-10-02T09:32:49.542Z,18.93
2016-10-02T09:33:49.565Z,19.04
2016-10-02T09:34:49.592Z,19.02
2016-10-02T09:35:49.607Z,19.11
2016-10-02T09:36:49.625Z,19.15
2016-10-02T09:37:49.660Z,19.22
2016-10-02T09:38:49.674Z,19.21
2016-10-02T09:39:49.708Z,19.33
2016-10-02T09:40:49.720Z,19.3
2016-10-02T09:41:49.739Z,19.37
2016-10-02T09:42:49.767Z,19.37
2016-10-02T09:43:49.784Z,19.4
2016-10-02T09:44:49.807Z,19.54
2016-10-02T09:45:49.835Z,19.47
2016-10-02T09:46:49.849Z,19.54
2016-10-02T09:47:49.874Z,19.58
2016-10-02T09:48:49.901Z,19.59
2016-10-02T09:49:49.922Z,19.58
2016-10-02T09:50:49.939Z,19.67
2016-10-02T09:51:49.975Z,19.69
2016-10-02T09:52:49.989Z,19.89
2016-10-02T09:53:50.004Z,19.88
2016-10-02T09:54:50.026Z,19.94
2016-10-02T09:55:50.047Z,20.03
2016-10-02T09:56:50.080Z,20.13
2016-10-02T09:57:50.088Z,20.14
2016-10-02T09:58:50.118Z,20.13
2016-10-02T09:59:50.143Z,20.18
2016-10-02T10:00:50.158Z,20.26
2016-10-02T10:01:50.192Z,20.26
2016-10-02T10:02:50.207Z,20.28
2016-10-02T10:03:50.224Z,20.26
2016-10-02T10:04:50.247Z,20.32
2016-10-02T10:05:50.282Z,20.44
2016-10-02T10:06:50.296Z,20.47
2016-10-02T10:07:50.320Z,20.44
2016-10-02T10:08:50.344Z,20.47
2016-10-02T10:09:50.364Z,20.59
2016-10-02T10:10:50.390Z,20.63
2016-10-02T10:11:50.404Z,20.62
2016-10-02T10:12:50.426Z,20.67
2016-10-02T10:13:50.452Z,20.77
2016-10-02T10:14:50.486Z,20.87
2016-10-02T10:15:50.506Z,20.82
2016-10-02T10:16:50.529Z,20.95
2016-10-02T10:17:50.540Z,20.96
2016-10-02T10:18:50.559Z,21.02
2016-10-02T10:19:50.594Z,21.07
2016-10-02T10:20:50.616Z,21.21
2016-10-02T10:21:50.638Z,21.15
2016-10-02T10:22:50.667Z,21.25
2016-10-02T10:23:50.683Z,21.3
2016-10-02T10:24:50.701Z,21.4
2016-10-02T10:25:51.082Z,21.33
2016-10-02T10:26:50.761Z,21.43
2016-10-02T10:27:50.780Z,21.54
2016-10-02T10:28:50.812Z,21.58
2016-10-02T10:29:50.820Z,21.61
2016-10-02T10:30:50.850Z,21.57
2016-10-02T10:31:50.979Z,21.73
2016-10-02T10:32:50.999Z,21.8
2016-10-02T10:33:51.009Z,21.88
2016-10-02T10:34:51.043Z,21.88
2016-10-02T10:35:51.051Z,21.96
2016-10-02T10:36:51.050Z,22.02
2016-10-02T10:37:51.060Z,22.04
2016-10-02T10:38:51.069Z,22.13
2016-10-02T10:39:51.078Z,22.22
2016-10-02T10:40:51.088Z,22.22
2016-10-02T10:41:51.147Z,22.26
2016-10-02T10:42:51.157Z,22.26
2016-10-02T10:43:51.165Z,22.33
2016-10-02T10:44:51.172Z,22.35
2016-10-02T10:45:51.283Z,22.43
2016-10-02T10:46:51.295Z,22.44
2016-10-02T10:47:51.330Z,22.44
2016-10-02T10:48:51.339Z,22.5
2016-10-02T10:49:51.345Z,22.53
2016-10-02T10:50:51.345Z,22.39
2016-10-02T10:51:51.359Z,22.6
2016-10-02T10:52:51.364Z,22.54
2016-10-02T10:53:51.387Z,22.47
2016-10-02T10:54:51.415Z,22.45
2016-10-02T10:55:51.445Z,22.45
2016-10-02T10:56:51.463Z,22.55
2016-10-02T10:57:51.486Z,22.55
2016-10-02T10:58:51.507Z,22.55
2016-10-02T10:59:51.535Z,22.55
2016-10-02T11:00:51.561Z,22.41
2016-10-02T11:01:51.581Z,22.41
2016-10-02T11:02:51.847Z,22.35
2016-10-02T11:03:51.637Z,22.36
2016-10-02T11:04:51.652Z,22.36
2016-10-02T11:05:51.676Z,22.43
2016-10-02T11:06:51.697Z,22.32
2016-10-02T11:07:51.722Z,22.29
2016-10-02T11:08:51.754Z,22.35
2016-10-02T11:09:51.778Z,22.35
2016-10-02T11:10:51.804Z,22.32
2016-10-02T11:11:51.826Z,22.35
2016-10-02T11:12:51.840Z,22.32
2016-10-02T11:13:51.877Z,22.35
2016-10-02T11:14:51.896Z,22.38
2016-10-02T11:15:51.928Z,22.38
2016-10-02T11:16:51.950Z,22.41
2016-10-02T11:17:51.970Z,22.43
2016-10-02T11:18:51.987Z,22.43
2016-10-02T11:19:52.015Z,22.43
2016-10-02T11:20:52.042Z,22.53
2016-10-02T11:21:52.075Z,22.53
2016-10-02T11:22:52.088Z,22.44
2016-10-02T11:23:52.113Z,22.54
2016-10-02T11:24:52.138Z,22.44
2016-10-02T11:25:52.174Z,22.5
2016-10-02T11:26:52.192Z,22.54
2016-10-02T11:27:52.217Z,22.51
2016-10-02T11:28:52.236Z,22.57
2016-10-02T11:29:52.259Z,22.51
2016-10-02T11:30:52.290Z,22.53
2016-10-02T11:31:52.314Z,22.53
2016-10-02T11:32:52.329Z,22.57
2016-10-02T11:33:52.357Z,22.55
2016-10-02T11:34:52.386Z,22.62
2016-10-02T11:35:52.719Z,22.59
2016-10-02T11:36:52.436Z,22.69
2016-10-02T11:37:52.468Z,22.62
2016-10-02T11:38:52.481Z,22.6
2016-10-02T11:39:52.511Z,22.66
2016-10-02T11:40:52.533Z,22.69
2016-10-02T11:41:52.553Z,22.72
2016-10-02T11:42:52.588Z,22.7
2016-10-02T11:43:52.619Z,22.8
2016-10-02T11:44:52.639Z,22.69
2016-10-02T11:45:52.657Z,22.69
2016-10-02T11:46:52.679Z,22.72
2016-10-02T11:47:52.700Z,22.69
2016-10-02T11:48:52.727Z,22.7
2016-10-02T11:49:52.764Z,22.65
2016-10-02T11:50:52.791Z,22.65
2016-10-02T11:51:53.217Z,22.7
2016-10-02T11:52:52.846Z,22.68
2016-10-02T11:53:52.858Z,22.66
2016-10-02T11:54:52.995Z,22.69
2016-10-02T11:55:52.995Z,22.69
2016-10-02T11:56:53.010Z,22.6
2016-10-02T11:57:53.140Z,22.57
2016-10-02T11:58:53.149Z,22.57
2016-10-02T11:59:53.147Z,22.55
2016-10-02T12:00:53.156Z,22.63
2016-10-02T12:01:53.168Z,22.48
2016-10-02T12:02:53.176Z,22.53
2016-10-02T12:03:53.185Z,22.57
2016-10-02T12:04:53.320Z,22.44
2016-10-02T12:05:53.329Z,22.5
2016-10-02T12:06:53.346Z,22.44
2016-10-02T12:07:53.348Z,22.5
2016-10-02T12:08:53.360Z,22.39
2016-10-02T12:09:53.354Z,22.41
2016-10-02T12:10:53.333Z,22.38
2016-10-02T12:11:53.355Z,22.35
2016-10-02T12:12:53.353Z,22.29
2016-10-02T12:13:53.350Z,22.2
2016-10-02T12:14:53.370Z,22.3
2016-10-02T12:15:53.395Z,22.22
2016-10-02T12:16:53.415Z,22.14
2016-10-02T12:17:53.445Z,22.13
2016-10-02T12:18:53.474Z,22.02
2016-10-02T12:19:53.491Z,22
2016-10-02T12:20:53.520Z,21.99
2016-10-02T12:21:53.538Z,22.02
2016-10-02T12:22:53.564Z,21.96
2016-10-02T12:23:53.591Z,21.91
2016-10-02T12:24:53.631Z,21.93
2016-10-02T12:25:53.657Z,21.91
2016-10-02T12:26:53.669Z,21.91
2016-10-02T12:27:53.699Z,21.98
2016-10-02T12:28:53.742Z,21.91
2016-10-02T12:29:53.743Z,21.95
2016-10-02T12:30:53.757Z,21.98
2016-10-02T12:31:53.806Z,21.96
2016-10-02T12:32:53.826Z,22.04
2016-10-02T12:33:54.167Z,21.99
2016-10-02T12:34:53.870Z,22
2016-10-02T12:35:53.895Z,22.04
2016-10-02T12:36:53.917Z,21.99
2016-10-02T12:37:53.947Z,22
2016-10-02T12:38:53.959Z,22.15
2016-10-02T12:39:53.991Z,22.1
2016-10-02T12:40:54.031Z,22.13
2016-10-02T12:41:54.045Z,22.23
2016-10-02T12:42:54.072Z,22.28
2016-10-02T12:43:54.093Z,22.29
2016-10-02T12:44:54.109Z,22.35
2016-10-02T12:45:54.144Z,22.39
2016-10-02T12:46:54.165Z,22.5
2016-10-02T12:47:54.181Z,22.47
2016-10-02T12:48:54.208Z,22.51
2016-10-02T12:49:54.254Z,22.5
2016-10-02T12:50:54.268Z,22.62
2016-10-02T12:51:54.302Z,22.55
2016-10-02T12:52:54.309Z,22.69
2016-10-02T12:53:54.341Z,22.69
2016-10-02T12:54:54.364Z,22.72
2016-10-02T12:55:54.392Z,22.8
2016-10-02T12:56:54.416Z,22.76